Thunder radar more information blitzortung!


Radar de pluja more information rain snow radar


Visita la nostra xarxa de llocs de meteo:

Template documentation
and downloads

And another site



Wind From: 11-12-2017 11:00 Until: 14:59 warning for: Wind Level: Yellow info button

Pagina Historial Weather Underground text

Diari Resum Juny 27, 2017 Unitats:  Imperial    Mètric   Tant
« Previous Dia
SegĂźent Dia »
Diari Setmana Mensual Anual Personalitzada
  Maxima: Minima: Media:
Temperatura: 86.4 °F 68.9 °F 78.3 °F
Punt de rosada: 66.9 °F 59.5 °F 63.9 °F
Humitat: 79 % 47 % 62 %
Wind Speed: 12.7 mph 0 mph 4.1 mph
RĂ fegues de vent: 13 mph - -
Vent:- - SSE
Pression baro: 29.8 in 29.6 in -
Precipitacions: 0 in    
Historical Graphs
 
 
Dades de taula per Juny 27, 2017
Temps Temperatura Punt de rosada Pression baro Vent Wind Speed RĂ fegues de vent Humitat Rainfall Rate (Hourly)
00:00 70.2 °F 60.3 °F 29.8 in NNE 1 mph   71 % 0 in
00:01 75.9 °F 59.5 °F 29.8 in West 3.5 mph 3.5 mph 57 % 0 in
00:06 75.9 °F 59.5 °F 29.8 in WSW 3.5 mph 3.5 mph 57 % 0 in
00:10 70.2 °F 60.6 °F 29.8 in Calm     72 % 0 in
00:20 70.2 °F 60.6 °F 29.8 in NNW 1 mph 2 mph 72 % 0 in
00:30 70.2 °F 60.6 °F 29.8 in Calm   1 mph 72 % 0 in
00:40 69.8 °F 60.8 °F 29.8 in Calm   1 mph 73 % 0 in
00:50 69.6 °F 60.6 °F 29.7 in Calm     73 % 0 in
01:00 69.6 °F 60.6 °F 29.7 in Calm   1 mph 73 % 0 in
01:10 69.6 °F 61 °F 29.7 in Calm   1 mph 74 % 0 in
01:20 69.6 °F 60.6 °F 29.7 in NNE 2 mph 2 mph 73 % 0 in
01:30 69.4 °F 60.8 °F 29.7 in NE 1 mph 2 mph 74 % 0 in
01:40 69.3 °F 60.6 °F 29.7 in Calm   1 mph 74 % 0 in
01:50 68.9 °F 59.9 °F 29.7 in NNE 1 mph 1 mph 73 % 0 in
02:00 68.9 °F 60.3 °F 29.7 in WNW 1 mph 1 mph 74 % 0 in
02:10 69.3 °F 60.6 °F 29.7 in WSW 1 mph 2 mph 74 % 0 in
02:20 69.6 °F 61 °F 29.7 in Calm   1 mph 74 % 0 in
02:30 70 °F 61.3 °F 29.7 in East 1 mph 2 mph 74 % 0 in
02:40 70.2 °F 61.5 °F 29.7 in Calm   1 mph 74 % 0 in
02:50 71.2 °F 62.4 °F 29.8 in North 1 mph 3 mph 74 % 0 in
03:00 70.7 °F 61.5 °F 29.8 in NE 2 mph 3 mph 73 % 0 in
03:10 70.7 °F 61.5 °F 29.8 in NE 1 mph 3 mph 73 % 0 in
03:20 71.1 °F 61.5 °F 29.8 in NE 1 mph 2 mph 72 % 0 in
03:30 71.2 °F 61.3 °F 29.8 in NE 2 mph 3 mph 71 % 0 in
03:40 71.4 °F 61.5 °F 29.8 in NE 2 mph 3 mph 71 % 0 in
03:50 72.1 °F 61.9 °F 29.8 in NE 1 mph 4 mph 70 % 0 in
04:00 72.3 °F 62.1 °F 29.8 in NE 1 mph 4 mph 70 % 0 in
04:10 73 °F 62.8 °F 29.8 in NE 2 mph 2 mph 70 % 0 in
04:20 74.3 °F 63.5 °F 29.8 in NE 1 mph 2 mph 69 % 0 in
04:30 75.4 °F 64 °F 29.8 in NNE 1 mph 3 mph 68 % 0 in
04:40 75.2 °F 64.2 °F 29.8 in ENE 2 mph 3 mph 69 % 0 in
04:50 75.9 °F 64.6 °F 29.8 in East 3 mph 3 mph 68 % 0 in
05:00 77.4 °F 65.5 °F 29.8 in ESE 2 mph 4 mph 67 % 0 in
05:10 78.8 °F 66 °F 29.8 in SSE 2 mph 3 mph 65 % 0 in
05:20 79.2 °F 65.8 °F 29.8 in SSE 3 mph 4 mph 64 % 0 in
05:30 78.6 °F 65.5 °F 29.8 in ESE 3 mph 4 mph 64 % 0 in
05:40 79.3 °F 65.7 °F 29.7 in East 2 mph 6 mph 63 % 0 in
05:50 79.7 °F 66.4 °F 29.7 in East 3 mph 5 mph 64 % 0 in
09:00 82.6 °F 64.8 °F 29.7 in ESE 7 mph 7 mph 55 % 0 in
09:10 82.4 °F 64 °F 29.7 in ESE 9 mph 13 mph 54 % 0 in
09:20 82.4 °F 64.6 °F 29.7 in ESE 7 mph 8 mph 55 % 0 in
09:30 83.1 °F 64.2 °F 29.7 in East 3 mph 8 mph 53 % 0 in
09:40 83.7 °F 64.2 °F 29.7 in SE 6 mph 6 mph 52 % 0 in
09:50 83.5 °F 64 °F 29.7 in SE 5 mph 11 mph 52 % 0 in
10:00 82.6 °F 63.7 °F 29.7 in ESE 6 mph 8 mph 53 % 0 in
10:10 82.8 °F 63.9 °F 29.7 in ESE 5 mph 7 mph 53 % 0 in
10:20 83.8 °F 64.9 °F 29.7 in SE 2 mph 9 mph 53 % 0 in
10:30 84 °F 65.7 °F 29.7 in SE 2 mph 7 mph 54 % 0 in
10:40 84.2 °F 64.8 °F 29.7 in SE 3 mph 6 mph 52 % 0 in
10:50 83.1 °F 64.2 °F 29.7 in SSE 2 mph 6 mph 53 % 0 in
10:52 80.4 °F 66.7 °F 29.7 in ENE 5.9 mph 5.9 mph 63 % 0 in
10:57 80.2 °F 66 °F 29.7 in ESE 3.6 mph 3.6 mph 62 % 0 in
11:00 85.3 °F 64.6 °F 29.7 in South 2 mph 8 mph 50 % 0 in
11:02 80.4 °F 65.7 °F 29.7 in ENE 6.9 mph 6.9 mph 61 % 0 in
11:07 80.6 °F 65.8 °F 29.7 in ENE 4.6 mph 4.6 mph 61 % 0 in
11:10 84.7 °F 63.5 °F 29.6 in SSW 3 mph 4 mph 49 % 0 in
11:12 80.8 °F 66 °F 29.7 in NNE 6 mph 6 mph 61 % 0 in
11:17 81.3 °F 65.7 °F 29.7 in East 5.8 mph 5.8 mph 59 % 0 in
11:20 84.7 °F 63.5 °F 29.6 in South 6 mph 6 mph 49 % 0 in
11:22 82.4 °F 66.6 °F 29.7 in ENE 6.9 mph 6.9 mph 59 % 0 in
11:27 81.5 °F 65.3 °F 29.7 in ESE 6.9 mph 6.9 mph 58 % 0 in
11:30 85.6 °F 64.2 °F 29.6 in SSW 3 mph 6 mph 49 % 0 in
11:32 82.2 °F 66 °F 29.7 in East 6.4 mph 6.4 mph 58 % 0 in
11:37 81.9 °F 65.7 °F 29.7 in East 6.9 mph 6.9 mph 58 % 0 in
11:40 86.4 °F 63.9 °F 29.6 in SSW 2 mph 5 mph 47 % 0 in
11:42 81 °F 64.8 °F 29.7 in East 8.1 mph 8.1 mph 58 % 0 in
11:47 81.5 °F 65.8 °F 29.7 in ESE 8.1 mph 8.1 mph 59 % 0 in
11:52 81.9 °F 66 °F 29.7 in ESE 9.2 mph 9.2 mph 59 % 0 in
11:57 81.5 °F 65.8 °F 29.7 in ESE 10.4 mph 10.4 mph 59 % 0 in
12:02 81.9 °F 66 °F 29.7 in SSE 12.7 mph 12.7 mph 59 % 0 in
12:07 82 °F 65.8 °F 29.7 in SE 8.1 mph 8.1 mph 58 % 0 in
12:12 83.3 °F 66.9 °F 29.7 in East 7.6 mph 7.6 mph 58 % 0 in
12:17 82.8 °F 66.6 °F 29.7 in East 10.4 mph 10.4 mph 58 % 0 in
12:20 83.3 °F 66.9 °F 29.7 in East 5.8 mph 5.9 mph 58 % 0 in
12:25 83.7 °F 66.4 °F 29.7 in ESE 10.7 mph 10.7 mph 56 % 0 in
12:30 82.6 °F 65.8 °F 29.7 in ESE 11.5 mph 11.5 mph 57 % 0 in
12:35 83.8 °F 66.9 °F 29.7 in ESE 8.5 mph 8.5 mph 57 % 0 in
12:40 83.1 °F 65.8 °F 29.7 in East 12.7 mph 12.7 mph 56 % 0 in
12:45 82.4 °F 65.1 °F 29.7 in East 9.2 mph 9.2 mph 56 % 0 in
12:50 82.4 °F 65.1 °F 29.7 in ENE 10.4 mph 10.4 mph 56 % 0 in
12:55 82.6 °F 64.8 °F 29.7 in East 11.5 mph 11.5 mph 55 % 0 in
13:00 82.8 °F 64.9 °F 29.7 in ESE 11.5 mph 11.5 mph 55 % 0 in
13:05 82.6 °F 64.2 °F 29.7 in East 11.5 mph 11.5 mph 54 % 0 in
13:10 83.7 °F 65.8 °F 29.7 in ESE 5.9 mph 5.9 mph 55 % 0 in
13:15 83.1 °F 64.8 °F 29.7 in NE 10.4 mph 10.4 mph 54 % 0 in
13:20 83.1 °F 64.8 °F 29.7 in East 11.4 mph 11.4 mph 54 % 0 in
13:25 83.3 °F 64.9 °F 29.7 in East 9.7 mph 9.7 mph 54 % 0 in
13:30 82.9 °F 64.6 °F 29.7 in ENE 12.7 mph 12.7 mph 54 % 0 in
13:35 82.4 °F 64 °F 29.7 in ENE 11.5 mph 11.5 mph 54 % 0 in
13:40 82.4 °F 64.6 °F 29.7 in ESE 10.4 mph 10.4 mph 55 % 0 in
13:45 82 °F 64.2 °F 29.7 in ESE 12.7 mph 12.7 mph 55 % 0 in
16:43 86 °F 64 °F 29.6 in SW 8.1 mph 8.1 mph 48 % 0 in
16:48 85.8 °F 63.9 °F 29.6 in South 4.6 mph 4.6 mph 48 % 0 in
16:53 85.5 °F 63.5 °F 29.6 in SW 6.9 mph 6.9 mph 48 % 0 in
16:58 85.6 °F 63.7 °F 29.6 in West 5.8 mph 5.8 mph 48 % 0 in
17:03 85.8 °F 63.9 °F 29.6 in SW 3.6 mph 3.6 mph 48 % 0 in
17:08 86 °F 64 °F 29.6 in SSW 2.4 mph 2.4 mph 48 % 0 in
17:13 85.6 °F 63.7 °F 29.6 in SW 7.4 mph 7.4 mph 48 % 0 in
17:18 84 °F 63.3 °F 29.6 in SW 8.1 mph 8.1 mph 50 % 0 in
17:23 84 °F 63.3 °F 29.6 in West 7.4 mph 7.4 mph 50 % 0 in
17:28 84.4 °F 63.1 °F 29.6 in SW 10.4 mph 10.4 mph 49 % 0 in
17:33 84.4 °F 63.1 °F 29.6 in SW 8.1 mph 8.1 mph 49 % 0 in
17:34 84.6 °F 63.3 °F 29.6 in WSW 5.8 mph 5.8 mph 49 % 0 in
17:39 84 °F 63.3 °F 29.6 in West 8.1 mph 8.1 mph 50 % 0 in
17:44 83.5 °F 63.3 °F 29.6 in WSW 5.8 mph 6 mph 51 % 0 in
17:49 84.4 °F 63.7 °F 29.6 in SW 11.5 mph 11.5 mph 50 % 0 in
17:54 84.4 °F 63.7 °F 29.6 in South 5.8 mph 5.8 mph 50 % 0 in
17:59 85.3 °F 64 °F 29.6 in SE 3.5 mph 3.5 mph 49 % 0 in
18:04 84.9 °F 63.7 °F 29.6 in SSW 6.9 mph 6.9 mph 49 % 0 in
18:09 84.7 °F 63.5 °F 29.6 in SW 4.6 mph 4.6 mph 49 % 0 in
18:14 83.7 °F 63 °F 29.6 in SW 4.3 mph 4.3 mph 50 % 0 in
18:19 83.1 °F 62.6 °F 29.6 in SW 2.3 mph 2.3 mph 50 % 0 in
18:24 82.8 °F 62.2 °F 29.6 in South 4.6 mph 4.6 mph 50 % 0 in
18:29 82.8 °F 62.2 °F 29.6 in SW 3.5 mph 3.5 mph 50 % 0 in
18:34 82.6 °F 62.6 °F 29.6 in SW 3.5 mph 3.5 mph 51 % 0 in
18:39 82.2 °F 62.2 °F 29.6 in SW 3.5 mph 3.5 mph 51 % 0 in
18:44 82 °F 62.1 °F 29.6 in South 2.3 mph 2.3 mph 51 % 0 in
18:49 81.5 °F 61.5 °F 29.6 in SW 6.9 mph 6.9 mph 51 % 0 in
18:54 81 °F 61.7 °F 29.6 in SSW 4.7 mph 4.7 mph 52 % 0 in
18:59 81 °F 61.7 °F 29.6 in WSW 3.5 mph 3.5 mph 52 % 0 in
19:04 81.3 °F 62.1 °F 29.6 in SSW 8.5 mph 8.5 mph 52 % 0 in
19:09 82 °F 63.1 °F 29.6 in South 5.8 mph 5.8 mph 53 % 0 in
19:14 81.9 °F 63.1 °F 29.6 in WSW 8.1 mph 8.1 mph 53 % 0 in
19:19 81.9 °F 63.1 °F 29.6 in WSW 3.5 mph 4.9 mph 53 % 0 in
19:20 74.1 °F 64.9 °F 29.6 in Calm   1 mph 73 % 0 in
19:24 81.5 °F 62.8 °F 29.6 in SW 4 mph 4 mph 53 % 0 in
19:29 81.5 °F 63.3 °F 29.6 in SW 6.9 mph 6.9 mph 54 % 0 in
19:30 73.8 °F 64.9 °F 29.6 in SW 2 mph 2 mph 74 % 0 in
19:34 81.7 °F 63.3 °F 29.6 in WSW 5.8 mph 5.8 mph 54 % 0 in
19:39 81.1 °F 63 °F 29.6 in WSW 9.2 mph 9.2 mph 54 % 0 in
19:40 73.8 °F 64.9 °F 29.6 in Calm   2 mph 74 % 0 in
19:44 81 °F 62.8 °F 29.6 in SW 5.8 mph 5.8 mph 54 % 0 in
19:49 81 °F 62.8 °F 29.6 in SW 4.6 mph 4.6 mph 54 % 0 in
19:50 73.8 °F 64.9 °F 29.6 in Calm   1 mph 74 % 0 in
19:54 81 °F 62.8 °F 29.6 in SW 3.6 mph 3.6 mph 54 % 0 in
19:59 80.8 °F 63.1 °F 29.6 in WNW 3.6 mph 3.6 mph 55 % 0 in
20:00 73.8 °F 64.9 °F 29.6 in NE 1 mph 1 mph 74 % 0 in
20:04 80.6 °F 63 °F 29.6 in SW 4.6 mph 4.6 mph 55 % 0 in
20:09 80.2 °F 63.1 °F 29.6 in SW 5.8 mph 5.8 mph 56 % 0 in
20:10 73.8 °F 64.9 °F 29.6 in NNE 2 mph 3 mph 74 % 0 in
20:14 80.1 °F 63.5 °F 29.6 in SSW 4.6 mph 4.6 mph 57 % 0 in
20:19 79.9 °F 63.3 °F 29.6 in WSW 6.9 mph 6.9 mph 57 % 0 in
20:20 73.4 °F 64.6 °F 29.6 in Calm   2 mph 74 % 0 in
20:24 79.7 °F 63.7 °F 29.6 in SW 5.4 mph 5.4 mph 58 % 0 in
20:29 79.5 °F 63.3 °F 29.6 in SW 4.6 mph 4.6 mph 58 % 0 in
20:30 73.4 °F 64.9 °F 29.6 in NE 1 mph 1 mph 75 % 0 in
20:34 79.5 °F 63.3 °F 29.6 in SW 3.5 mph 3.5 mph 58 % 0 in
20:39 79.5 °F 63.9 °F 29.6 in WSW 3.5 mph 3.5 mph 59 % 0 in
20:40 73.4 °F 65.5 °F 29.6 in NE 1 mph 1 mph 76 % 0 in
20:44 79.5 °F 63.9 °F 29.6 in East 2.3 mph 2.3 mph 59 % 0 in
20:49 79.2 °F 64 °F 29.6 in WSW 5.8 mph 5.8 mph 60 % 0 in
20:50 73.2 °F 65.7 °F 29.6 in ENE 1 mph 2 mph 77 % 0 in
20:54 78.8 °F 64.2 °F 29.6 in WSW 3.5 mph 3.5 mph 61 % 0 in
20:59 78.6 °F 64 °F 29.6 in SW 3.5 mph 3.5 mph 61 % 0 in
21:00 73 °F 65.8 °F 29.6 in NE 2 mph 2 mph 78 % 0 in
21:04 78.4 °F 64.2 °F 29.6 in SSW 2.3 mph 2.3 mph 62 % 0 in
21:09 78.1 °F 64 °F 29.6 in SSW 4.6 mph 4.6 mph 62 % 0 in
21:10 72.9 °F 65.7 °F 29.6 in NNE 2 mph 3 mph 78 % 0 in
21:14 77.9 °F 63.9 °F 29.6 in SW 3.6 mph 3.6 mph 62 % 0 in
21:19 77.7 °F 64 °F 29.6 in West 2.3 mph 2.3 mph 63 % 0 in
21:20 72.7 °F 65.5 °F 29.6 in NNE 1 mph 3 mph 78 % 0 in
21:24 77.7 °F 64 °F 29.6 in WSW 2.4 mph 2.4 mph 63 % 0 in
21:29 77.5 °F 63.9 °F 29.6 in SW 2.3 mph 2.3 mph 63 % 0 in
21:30 72.7 °F 65.5 °F 29.6 in NE 2 mph 4 mph 78 % 0 in
21:34 77.4 °F 64.2 °F 29.6 in SW 2.3 mph 2.3 mph 64 % 0 in
21:39 77.2 °F 64 °F 29.6 in SSW 3.5 mph 3.5 mph 64 % 0 in
21:40 72.7 °F 65.5 °F 29.6 in NE 1 mph 1 mph 78 % 0 in
21:44 76.8 °F 64.2 °F 29.6 in SW 3.5 mph 3.5 mph 65 % 0 in
21:49 76.6 °F 64 °F 29.6 in SW 3.5 mph 3.5 mph 65 % 0 in
21:50 72.7 °F 65.5 °F 29.6 in Calm   2 mph 78 % 0 in
21:54 76.5 °F 63.9 °F 29.6 in West 2.3 mph 2.3 mph 65 % 0 in
21:59 76.5 °F 64.2 °F 29.6 in WSW 2.3 mph 2.3 mph 66 % 0 in
22:00 72.7 °F 65.5 °F 29.6 in Calm   2 mph 78 % 0 in
22:04 76.5 °F 64.2 °F 29.6 in West 2.9 mph 2.9 mph 66 % 0 in
22:09 76.3 °F 64 °F 29.6 in Calm     66 % 0 in
22:10 72.9 °F 66 °F 29.6 in NNW 2 mph 3 mph 79 % 0 in
22:14 76.3 °F 64 °F 29.6 in West 1.6 mph   66 % 0 in
22:19 76.3 °F 64 °F 29.6 in West 2.3 mph 2.3 mph 66 % 0 in
22:20 72.9 °F 66 °F 29.6 in Calm     79 % 0 in
22:24 76.3 °F 64.6 °F 29.6 in SW 2.3 mph 2.3 mph 67 % 0 in
22:29 76.1 °F 64.2 °F 29.6 in WSW 1.2 mph   67 % 0 in
22:30 72.3 °F 65.1 °F 29.6 in NE 5 mph 5 mph 78 % 0 in
22:34 76.1 °F 64.2 °F 29.6 in West 2.3 mph 2.3 mph 67 % 0 in
22:39 75.9 °F 64.2 °F 29.6 in WSW 2.3 mph   67 % 0 in
22:40 71.6 °F 64 °F 29.6 in East 5 mph 6 mph 77 % 0 in
22:44 75.9 °F 64.6 °F 29.6 in Calm     68 % 0 in
22:49 75.7 °F 64.4 °F 29.6 in WSW 2.3 mph 2.3 mph 68 % 0 in
22:50 71.4 °F 63.5 °F 29.6 in East 7 mph 8 mph 76 % 0 in
22:54 75.7 °F 64.4 °F 29.6 in WSW 1.2 mph   68 % 0 in
22:59 75.6 °F 64.2 °F 29.6 in SW 1.2 mph   68 % 0 in
23:00 71.2 °F 63 °F 29.6 in East 3 mph 6 mph 75 % 0 in
23:04 75.2 °F 63.9 °F 29.6 in Calm     68 % 0 in
23:09 75 °F 64.6 °F 29.6 in SW 1.6 mph 1.6 mph 70 % 0 in
23:10 71.2 °F 63 °F 29.6 in East 5 mph 7 mph 75 % 0 in
23:14 74.7 °F 64.2 °F 29.6 in SW 2.3 mph 2.3 mph 70 % 0 in
23:19 74.5 °F 64.6 °F 29.6 in Calm     71 % 0 in
23:20 70.9 °F 62.6 °F 29.6 in East 3 mph 5 mph 75 % 0 in
23:24 74.3 °F 64.2 °F 29.6 in Calm     71 % 0 in
23:29 74.3 °F 64.2 °F 29.6 in SW 1.2 mph   71 % 0 in
23:30 70.5 °F 62.2 °F 29.6 in ENE 2 mph 4 mph 75 % 0 in
23:34 74.1 °F 64 °F 29.6 in Calm     71 % 0 in
23:39 74.1 °F 64.6 °F 29.6 in SW 1.4 mph 1.4 mph 72 % 0 in
23:40 70.2 °F 61.9 °F 29.6 in ENE 2 mph 4 mph 75 % 0 in
23:44 74.1 °F 64.6 °F 29.6 in Calm     72 % 0 in
23:49 74.1 °F 64.6 °F 29.6 in SW 1.2 mph 1.2 mph 72 % 0 in
23:50 70 °F 61.7 °F 29.6 in NE 2 mph 4 mph 75 % 0 in
23:54 74.1 °F 64.6 °F 29.6 in SW 1.2 mph 1.4 mph 72 % 0 in
23:59 74.1 °F 64.9 °F 29.6 in WSW 1.2 mph 1.2 mph 73 % 0 in
Meteo Sesrovires
Elogis d' Weather Underground - 3.5 mb

Guio original per  Jim McMurry - jmcmurry@mwt.net Adaptat per a la plantilla per  Wim van der Kuil - Leuven-Template.eu

Trobareu la nostra informacio del temps tambe a:

Weather Underground

AWEKAS